logo
Rechercher aéroport 
image banner adimage banner adimage banner ad
image banner ad

EDBOR - Bork

Situé à , Germany

ICAO - , IATA -

Données fournies par Airmate  

Information générale

Coordonnées: N52°14'2" E12°50'50"
Élévation : 193 feet MSL.
 
Voir autres Aéroports à Brandenburg

Données opérationnelles

Special qualification required
Heure actuelle UTC:
Heure actuelle locale:
Météo à : EDDB - Berlin Brandenburg ( 47 km )
METAR: EDDB 251520Z AUTO 27005KT 220V330 CAVOK 23/09 Q1014 NOSIG
TAF: TAF EDDB 251100Z 2512/2612 29007KT 9999 SCT045 BECMG 2516/2519 VRB03KT BECMG 2605/2608 15006KT
Voir NOTAMs / SUP AIP / TFR affectant cet aéroport [VIEW]
Fréquences de communication: [VIEW]

Pistes:

Identifiant RWYQFULongueur (ft)Largeur (ft)SurfaceLDA (ft)
17170°2690164GRASS
35350°2690164GRASS

Coordonnées de l'aéroport

Adresse: Germany

Vue satellite de EDBOR